createdAt,value
2019-01-29T01:10:15.669Z,18.10
2019-01-29T01:12:46.493Z,12.80
2019-01-29T01:15:17.471Z,13.63
2019-01-29T01:17:48.307Z,13.63
2019-01-29T01:20:19.154Z,16.80
2019-01-29T01:22:51.083Z,15.67
2019-01-29T01:25:22.273Z,16.40
2019-01-29T01:27:52.808Z,13.73
2019-01-29T01:30:24.284Z,12.30
2019-01-29T01:32:54.818Z,14.50
2019-01-29T01:35:25.706Z,20.43
2019-01-29T01:37:56.649Z,17.87
2019-01-29T01:40:27.418Z,15.43
2019-01-29T01:42:58.017Z,20.83
2019-01-29T01:45:28.662Z,19.97
2019-01-29T01:47:59.232Z,14.73
2019-01-29T01:50:29.856Z,21.80
2019-01-29T01:53:00.479Z,14.10
2019-01-29T01:55:31.191Z,24.50
2019-01-29T01:58:02.092Z,16.50
2019-01-29T02:00:32.779Z,24.60
2019-01-29T02:03:03.424Z,22.13
2019-01-29T02:05:34.086Z,14.53
2019-01-29T02:08:05.357Z,20.13
2019-01-29T02:10:36.101Z,18.10
2019-01-29T02:13:06.882Z,23.00
2019-01-29T02:15:37.517Z,17.77
2019-01-29T02:18:08.252Z,17.57
2019-01-29T02:20:39.184Z,16.93
2019-01-29T02:23:09.820Z,15.10
2019-01-29T02:25:40.391Z,19.50
2019-01-29T02:28:12.576Z,17.90
2019-01-29T02:30:43.169Z,16.60
2019-01-29T02:33:13.716Z,20.00
2019-01-29T02:35:44.283Z,16.60
2019-01-29T02:38:15.015Z,12.70
2019-01-29T02:40:45.684Z,19.10
2019-01-29T02:43:16.346Z,20.07
2019-01-29T02:45:46.888Z,15.40
2019-01-29T02:48:17.526Z,15.50
2019-01-29T02:50:48.396Z,14.93
2019-01-29T02:53:18.980Z,19.93
2019-01-29T02:55:49.554Z,20.83
2019-01-29T02:58:20.186Z,18.67
2019-01-29T03:00:51.043Z,22.77
2019-01-29T03:03:21.610Z,14.47
2019-01-29T03:05:52.211Z,20.00
2019-01-29T03:08:22.871Z,16.87
2019-01-29T03:10:53.544Z,18.63
2019-01-29T03:13:24.157Z,16.33
2019-01-29T03:15:54.808Z,14.90
2019-01-29T03:18:25.357Z,19.83
2019-01-29T03:20:55.982Z,19.57
2019-01-29T03:23:27.681Z,12.33
2019-01-29T03:25:58.599Z,9.50
2019-01-29T03:28:29.209Z,20.13
2019-01-29T03:30:59.907Z,16.33
2019-01-29T03:33:30.564Z,19.60
2019-01-29T03:36:01.485Z,18.77
2019-01-29T03:38:32.178Z,12.43
2019-01-29T03:41:02.785Z,15.43
2019-01-29T03:43:33.336Z,11.07
2019-01-29T03:46:04.202Z,12.20
2019-01-29T03:48:34.832Z,23.53
2019-01-29T03:51:05.638Z,11.00
2019-01-29T03:53:38.269Z,9.63
2019-01-29T03:56:08.778Z,13.20
2019-01-29T03:58:39.437Z,15.43
2019-01-29T04:01:10.119Z,26.17
2019-01-29T04:03:40.681Z,19.83
2019-01-29T04:06:11.588Z,14.17
2019-01-29T04:08:42.409Z,21.13
2019-01-29T04:11:13.349Z,14.13
2019-01-29T04:13:43.935Z,22.33
2019-01-29T04:16:15.474Z,13.00
2019-01-29T04:18:46.043Z,15.83
2019-01-29T04:21:16.693Z,22.27
2019-01-29T04:23:48.007Z,14.07
2019-01-29T04:26:18.762Z,16.73
2019-01-29T04:28:49.305Z,12.70
2019-01-29T04:31:19.961Z,14.90
2019-01-29T04:33:50.821Z,24.00
2019-01-29T04:36:21.475Z,16.97
2019-01-29T04:38:52.142Z,12.30
2019-01-29T04:41:22.787Z,17.30
2019-01-29T04:43:53.388Z,13.17
2019-01-29T04:46:24.218Z,14.37
2019-01-29T04:48:54.865Z,11.33
2019-01-29T04:51:25.520Z,16.20
2019-01-29T04:53:57.464Z,12.00
2019-01-29T04:56:28.706Z,12.07
2019-01-29T04:59:00.257Z,12.80
2019-01-29T05:01:30.851Z,11.53
2019-01-29T05:04:01.431Z,13.20
2019-01-29T05:06:32.033Z,17.27
2019-01-29T05:09:03.814Z,9.43
2019-01-29T05:11:34.383Z,16.07
2019-01-29T05:14:05.684Z,13.07
2019-01-29T05:16:36.596Z,16.37
2019-01-29T05:19:07.340Z,17.67
2019-01-29T05:21:37.982Z,16.53
2019-01-29T05:34:07.225Z,9.17
2019-01-29T05:36:37.791Z,12.17
2019-01-29T05:39:09.990Z,10.63
2019-01-29T05:41:42.266Z,20.90
2019-01-29T05:44:13.141Z,12.83
2019-01-29T05:46:43.794Z,26.53
2019-01-29T05:49:14.388Z,14.50
2019-01-29T05:51:45.049Z,15.77
2019-01-29T05:54:16.624Z,18.37
2019-01-29T05:56:47.545Z,12.73
2019-01-29T05:59:18.216Z,15.90
2019-01-29T06:01:48.792Z,15.03
2019-01-29T06:04:19.475Z,14.60
2019-01-29T06:06:50.838Z,16.40
2019-01-29T06:09:21.429Z,17.03
2019-01-29T06:11:52.060Z,9.70
2019-01-29T06:14:22.648Z,12.43
2019-01-29T06:16:53.346Z,13.37
2019-01-29T06:19:23.961Z,21.23
2019-01-29T06:21:54.853Z,15.13
2019-01-29T06:24:26.155Z,15.50
2019-01-29T06:26:56.821Z,16.50
2019-01-29T06:29:27.392Z,20.83
2019-01-29T06:31:58.034Z,17.80
2019-01-29T06:34:28.711Z,16.23
2019-01-29T06:36:59.266Z,11.50
2019-01-29T06:39:30.094Z,14.43
2019-01-29T06:42:00.797Z,9.60
2019-01-29T06:44:31.436Z,15.10
2019-01-29T06:47:02.162Z,15.67
2019-01-29T06:49:33.013Z,20.70
2019-01-29T06:52:03.678Z,10.00
2019-01-29T07:14:32.308Z,14.87
2019-01-29T07:17:24.797Z,20.17
2019-01-29T07:22:27.332Z,18.37
2019-01-29T07:32:26.520Z,22.87
2019-01-29T07:34:57.135Z,29.30
2019-01-29T07:37:27.734Z,32.80
2019-01-29T07:39:58.561Z,21.50
2019-01-29T07:42:29.130Z,30.50
2019-01-29T07:44:59.750Z,22.47
2019-01-29T07:47:30.616Z,22.65
2019-01-29T07:50:01.659Z,30.47
2019-01-29T07:52:32.488Z,22.70
2019-01-29T07:55:03.077Z,23.02
2019-01-29T07:57:33.745Z,15.70
2019-01-29T08:00:05.365Z,23.40
2019-01-29T08:05:07.126Z,10.90
2019-01-29T08:07:37.818Z,10.73
2019-01-29T08:10:08.707Z,11.73
2019-01-29T08:12:39.541Z,15.70
2019-01-29T08:15:11.142Z,27.70
2019-01-29T08:17:41.941Z,11.00
2019-01-29T08:20:12.822Z,13.30
2019-01-29T08:22:43.511Z,14.50
2019-01-29T08:25:14.377Z,19.50
2019-01-29T08:27:45.040Z,14.13
2019-01-29T08:30:16.112Z,14.83
2019-01-29T08:32:46.854Z,11.40
2019-01-29T08:35:18.297Z,11.07
2019-01-29T08:37:49.185Z,8.57
2019-01-29T08:40:20.023Z,11.90
2019-01-29T08:42:50.586Z,40.17
2019-01-29T08:45:21.428Z,8.90
2019-01-29T08:47:52.481Z,11.60
2019-01-29T08:50:23.257Z,14.77
2019-01-29T08:52:53.901Z,12.23
2019-01-29T08:55:24.894Z,16.07
2019-01-29T08:57:55.734Z,17.10
2019-01-29T09:00:26.539Z,12.40
2019-01-29T09:02:57.112Z,7.77
2019-01-29T09:05:28.117Z,9.13
2019-01-29T09:07:59.099Z,13.10
2019-01-29T09:10:29.736Z,13.93
2019-01-29T09:13:00.440Z,15.10
2019-01-29T09:15:31.090Z,11.77
2019-01-29T09:18:02.170Z,18.07
2019-01-29T09:20:33.027Z,10.90
2019-01-29T09:23:03.622Z,14.13
2019-01-29T09:25:34.333Z,10.13
2019-01-29T09:28:05.124Z,12.00
2019-01-29T09:30:36.429Z,12.37
2019-01-29T09:33:07.478Z,24.80
2019-01-29T09:35:38.580Z,22.77
2019-01-29T09:38:09.487Z,13.10
2019-01-29T09:40:40.177Z,16.07
2019-01-29T09:43:10.846Z,22.87
2019-01-29T09:45:41.485Z,13.97
2019-01-29T09:48:12.052Z,13.27
2019-01-29T09:50:42.634Z,9.87
2019-01-29T09:53:13.302Z,15.80
2019-01-29T09:55:43.905Z,15.47
2019-01-29T09:58:14.590Z,12.80
2019-01-29T10:00:45.308Z,12.90
2019-01-29T10:03:17.475Z,17.40
2019-01-29T10:05:48.144Z,14.97
2019-01-29T10:08:18.765Z,17.40
2019-01-29T10:10:49.449Z,15.23
2019-01-29T10:13:20.134Z,17.00
2019-01-29T10:15:50.806Z,21.53
2019-01-29T10:18:21.509Z,11.93
2019-01-29T10:20:52.562Z,11.03
2019-01-29T10:23:24.087Z,24.53
2019-01-29T10:25:54.650Z,13.67
2019-01-29T10:28:25.293Z,13.73
2019-01-29T10:30:55.994Z,14.93
2019-01-29T10:33:26.611Z,10.07
2019-01-29T10:35:57.346Z,12.03
2019-01-29T10:38:28.045Z,15.17
2019-01-29T10:40:59.048Z,10.63
2019-01-29T10:43:29.962Z,11.80
2019-01-29T10:46:00.880Z,13.40
2019-01-29T10:48:31.677Z,12.27
2019-01-29T10:51:05.609Z,11.13
2019-01-29T10:53:36.238Z,17.10
2019-01-29T10:56:07.001Z,13.53
2019-01-29T10:58:37.677Z,11.97
2019-01-29T11:01:08.553Z,12.57
2019-01-29T11:03:39.180Z,10.10
2019-01-29T11:06:09.835Z,12.30
2019-01-29T11:08:40.475Z,9.40
2019-01-29T11:11:11.100Z,16.47
2019-01-29T11:16:11.994Z,13.03
2019-01-29T11:18:43.077Z,12.20
2019-01-29T11:21:13.660Z,9.30
2019-01-29T11:23:44.223Z,9.00
2019-01-29T11:26:14.885Z,11.30
2019-01-29T11:28:45.548Z,10.23
2019-01-29T11:31:16.142Z,10.30
2019-01-29T11:33:52.395Z,15.60
2019-01-29T11:36:23.046Z,11.53
2019-01-29T11:38:53.616Z,15.83
2019-01-29T11:41:24.292Z,12.27
2019-01-29T11:43:54.903Z,16.20
2019-01-29T11:46:25.528Z,15.73
2019-01-29T11:48:56.456Z,12.40
2019-01-29T11:51:27.183Z,17.60
2019-01-29T11:53:58.034Z,19.83
2019-01-29T11:56:28.652Z,16.13
2019-01-29T11:58:59.331Z,16.47
2019-01-29T12:01:29.958Z,19.20
2019-01-29T12:04:00.842Z,17.40
2019-01-29T12:14:00.334Z,16.40
2019-01-29T12:16:31.037Z,27.00
2019-01-29T12:19:01.602Z,21.10
2019-01-29T12:21:32.460Z,22.40
2019-01-29T12:24:03.155Z,19.87
2019-01-29T12:26:33.775Z,18.00
2019-01-29T12:29:05.011Z,18.93
2019-01-29T12:31:35.770Z,32.70
2019-01-29T12:34:06.610Z,23.23
2019-01-29T12:36:37.377Z,20.93
2019-01-29T12:39:09.247Z,27.20
2019-01-29T12:41:43.766Z,22.70
2019-01-29T12:44:14.773Z,23.50
2019-01-29T12:46:45.675Z,26.52
2019-01-29T12:49:16.243Z,29.40
2019-01-29T12:51:58.978Z,29.02
2019-01-29T12:54:29.678Z,27.40
2019-01-29T12:57:00.230Z,29.05
2019-01-29T12:59:30.792Z,30.20
2019-01-29T13:02:01.487Z,31.68
2019-01-29T13:04:32.104Z,27.93
2019-01-29T13:07:02.690Z,30.05
2019-01-29T13:09:33.341Z,28.92
2019-01-29T13:12:05.550Z,35.83
2019-01-29T13:14:36.805Z,37.70
2019-01-29T13:17:07.373Z,43.73
2019-01-29T13:19:37.965Z,29.03
2019-01-29T13:22:08.705Z,35.77
2019-01-29T13:24:39.431Z,28.10
2019-01-29T13:27:10.192Z,32.83
2019-01-29T13:29:40.810Z,28.10
2019-01-29T13:32:11.474Z,28.20
2019-01-29T13:34:42.093Z,27.00
2019-01-29T13:37:13.035Z,28.30
2019-01-29T13:39:43.687Z,32.00
2019-01-29T13:42:14.581Z,27.43
2019-01-29T13:44:45.178Z,27.63
2019-01-29T13:47:16.060Z,29.33
2019-01-29T13:49:49.062Z,32.90
2019-01-29T13:52:19.627Z,28.47
2019-01-29T13:54:50.203Z,34.73
2019-01-29T13:57:20.800Z,36.53
2019-01-29T13:59:51.353Z,33.93
2019-01-29T14:02:22.009Z,33.20
2019-01-29T14:04:53.159Z,34.63
2019-01-29T14:07:23.734Z,30.80
2019-01-29T14:09:54.454Z,27.00
2019-01-29T14:12:25.128Z,33.23
2019-01-29T14:14:55.707Z,28.60
2019-01-29T14:17:26.383Z,29.10
2019-01-29T14:19:57.018Z,22.80
2019-01-29T14:22:27.632Z,27.07
2019-01-29T14:24:58.509Z,30.30
2019-01-29T14:27:29.123Z,27.40
2019-01-29T14:29:59.964Z,36.03
2019-01-29T14:32:30.593Z,26.47
2019-01-29T14:35:01.199Z,25.43
2019-01-29T14:37:47.796Z,28.63
2019-01-29T14:40:20.505Z,22.80
2019-01-29T14:42:51.332Z,31.70
2019-01-29T14:45:25.333Z,24.07
2019-01-29T14:47:55.886Z,23.00
2019-01-29T14:50:27.046Z,18.80
2019-01-29T14:52:57.853Z,22.30
2019-01-29T14:55:28.975Z,22.20
2019-01-29T14:57:59.667Z,23.07
2019-01-29T15:00:30.475Z,26.43
2019-01-29T15:03:01.205Z,35.10
2019-01-29T15:05:31.890Z,26.27
2019-01-29T15:08:02.826Z,27.10
2019-01-29T15:10:33.618Z,24.37
2019-01-29T15:13:04.870Z,23.97
2019-01-29T15:15:38.903Z,27.93
2019-01-29T15:18:22.454Z,29.57
2019-01-29T15:20:53.172Z,19.60
2019-01-29T15:23:23.982Z,19.47
2019-01-29T15:25:54.736Z,30.17
2019-01-29T15:28:25.352Z,27.87
2019-01-29T15:30:56.223Z,22.63
2019-01-29T15:33:26.940Z,35.10
2019-01-29T15:35:57.537Z,29.80
2019-01-29T15:38:35.703Z,28.37
2019-01-29T15:41:06.461Z,33.73
2019-01-29T15:43:37.266Z,27.60
2019-01-29T15:46:07.985Z,34.93
2019-01-29T15:48:38.683Z,23.63
2019-01-29T15:51:09.628Z,32.47
2019-01-29T15:53:40.259Z,28.70
2019-01-29T15:56:10.920Z,25.27
2019-01-29T15:58:41.871Z,23.60
2019-01-29T16:01:12.997Z,27.67
2019-01-29T16:03:43.645Z,26.03
2019-01-29T16:06:14.319Z,24.93
2019-01-29T16:08:44.915Z,33.40
2019-01-29T16:11:15.568Z,25.07
2019-01-29T16:13:46.138Z,25.83
2019-01-29T16:16:17.442Z,24.40
2019-01-29T16:21:17.568Z,26.30
2019-01-29T16:23:48.286Z,34.40
2019-01-29T16:26:18.914Z,33.53
2019-01-29T16:28:49.555Z,28.73
2019-01-29T16:31:20.186Z,28.17
2019-01-29T16:33:53.223Z,31.35
2019-01-29T16:36:29.165Z,34.23
2019-01-29T16:38:59.740Z,34.90
2019-01-29T16:41:30.568Z,25.23
2019-01-29T16:44:02.380Z,27.63
2019-01-29T16:46:33.305Z,29.17
2019-01-29T16:49:04.311Z,28.00
2019-01-29T16:51:41.994Z,27.20
2019-01-29T16:54:09.126Z,31.33
2019-01-29T16:56:41.093Z,29.77
2019-01-29T16:59:11.685Z,27.53
2019-01-29T17:01:42.333Z,28.07
2019-01-29T17:04:17.097Z,29.80
2019-01-29T17:06:49.010Z,24.03
2019-01-29T17:09:19.663Z,21.33
2019-01-29T17:11:50.354Z,34.03
2019-01-29T17:14:21.076Z,35.57
2019-01-29T18:59:51.460Z,19.20
2019-01-29T19:02:23.998Z,20.90
2019-01-29T19:04:55.361Z,23.30
2019-01-29T19:07:33.866Z,21.67
2019-01-29T19:10:05.302Z,20.35
2019-01-29T19:12:36.141Z,19.98
2019-01-29T19:15:09.333Z,21.55
2019-01-29T22:32:32.448Z,19.45
2019-01-29T22:35:03.359Z,21.57
2019-01-29T22:37:34.234Z,23.77
2019-01-29T22:40:07.404Z,23.85
2019-01-29T22:42:37.954Z,23.10
2019-01-29T23:01:54.868Z,19.90
2019-01-29T23:04:34.222Z,21.48
2019-01-29T23:07:17.011Z,16.37
2019-01-29T23:09:49.397Z,20.12
2019-01-29T23:12:22.173Z,21.55
2019-01-29T23:14:56.407Z,17.85
2019-01-29T23:17:30.372Z,23.40
2019-01-29T23:20:16.711Z,21.02
2019-01-29T23:22:50.323Z,20.48
2019-01-29T23:25:27.230Z,18.98
2019-01-29T23:28:04.503Z,19.03
2019-01-29T23:30:40.608Z,17.60
2019-01-29T23:33:12.199Z,16.67
2019-01-29T23:36:10.398Z,17.37
2019-01-29T23:38:37.965Z,19.50
2019-01-29T23:41:09.191Z,17.70
2019-01-29T23:43:45.132Z,17.82
2019-01-29T23:46:20.678Z,15.17
2019-01-29T23:49:07.261Z,14.55
2019-01-29T23:51:40.225Z,16.32
2019-01-29T23:54:15.551Z,15.00
2019-01-29T23:56:46.596Z,15.32
2019-01-29T23:59:17.543Z,15.55
